Terminal Aerodrome Forecast
Issued by NWS

Home | Current Version | Previous Version | Text Only | Print | Product List | Glossary On
Versions: 1 2 3 4 5 6 7 8 9 10 11 12 13 14 15 16 17 18 19 20 21 22 23 24 25 26 27 28 29 30 31 32
000
FTUS45 KCYS 022320
TAFAIA
TAF
KAIA 022320Z 0300/0324 15009KT P6SM VCTS SCT050CB
     FM030300 04008KT P6SM BKN120
     FM031000 03011KT 2SM BR BKN005 BKN015
     FM031800 02010KT P6SM SCT005 BKN015
     FM032100 05012KT P6SM VCTS SCT015 BKN030CB=

USA.gov is the U.S. government's official web portal to all federal, state and local government web resources and services.